createdAt,value
2022-08-25T00:00:41.052Z,80.71
2022-08-25T00:01:36.069Z,80.79
2022-08-25T00:02:31.222Z,80.75
2022-08-25T00:03:26.228Z,80.72
2022-08-25T00:04:21.213Z,80.71
2022-08-25T00:05:16.337Z,80.72
2022-08-25T00:06:13.842Z,80.60
2022-08-25T00:07:08.921Z,80.57
2022-08-25T00:08:04.056Z,80.57
2022-08-25T00:08:59.002Z,80.72
2022-08-25T00:09:54.101Z,80.88
2022-08-25T00:10:59.920Z,81.10
2022-08-25T00:11:45.321Z,81.24
2022-08-25T00:12:39.321Z,81.20
2022-08-25T00:13:34.458Z,81.14
2022-08-25T00:14:29.551Z,81.04
2022-08-25T00:15:24.637Z,81.14
2022-08-25T00:16:19.797Z,81.20
2022-08-25T00:17:14.801Z,81.36
2022-08-25T00:18:16.944Z,81.39
2022-08-25T00:19:05.925Z,81.44
2022-08-25T00:19:59.980Z,81.51
2022-08-25T00:20:55.168Z,81.57
2022-08-25T00:21:50.401Z,81.65
2022-08-25T00:22:45.503Z,81.89
2022-08-25T00:23:40.907Z,82.16
2022-08-25T00:24:36.105Z,82.31
2022-08-25T00:25:31.219Z,82.58
2022-08-25T00:26:26.453Z,82.69
2022-08-25T00:27:21.556Z,82.49
2022-08-25T00:28:16.776Z,82.38
2022-08-25T00:29:12.006Z,82.37
2022-08-25T00:30:07.148Z,82.45
2022-08-25T00:31:02.439Z,82.46
2022-08-25T00:31:57.663Z,82.46
2022-08-25T00:32:57.201Z,82.36
2022-08-25T00:33:48.264Z,82.50
2022-08-25T00:34:43.516Z,82.57
2022-08-25T00:35:38.726Z,82.66
2022-08-25T00:36:33.848Z,82.63
2022-08-25T00:37:29.063Z,82.55
2022-08-25T00:38:24.262Z,82.42
2022-08-25T00:39:19.402Z,82.32
2022-08-25T00:40:14.549Z,82.38
2022-08-25T00:41:09.742Z,82.43
2022-08-25T00:42:04.853Z,82.41
2022-08-25T00:43:01.002Z,82.52
2022-08-25T00:43:55.151Z,82.55
2022-08-25T00:44:50.420Z,82.52
2022-08-25T00:45:45.502Z,82.50
2022-08-25T00:46:40.656Z,82.47
2022-08-25T00:47:35.703Z,82.55
2022-08-25T00:48:31.040Z,82.48
2022-08-25T00:49:26.161Z,82.52
2022-08-25T00:50:21.369Z,82.59
2022-08-25T00:51:16.502Z,82.46
2022-08-25T00:52:11.581Z,82.40
2022-08-25T00:53:06.640Z,82.43
2022-08-25T00:54:01.740Z,82.34
2022-08-25T00:54:56.837Z,82.23
2022-08-25T00:55:52.078Z,82.15
2022-08-25T00:56:47.182Z,82.08
2022-08-25T00:57:42.255Z,82.09
2022-08-25T00:58:37.317Z,82.13
2022-08-25T00:59:32.456Z,82.27
2022-08-25T01:00:27.404Z,82.36
2022-08-25T01:01:22.520Z,82.40
2022-08-25T01:02:17.518Z,82.39
2022-08-25T01:03:12.577Z,82.29
2022-08-25T01:04:07.675Z,82.17
2022-08-25T01:05:02.819Z,82.20
2022-08-25T01:05:57.790Z,82.39
2022-08-25T01:06:52.813Z,82.44
2022-08-25T01:07:47.812Z,82.59
2022-08-25T01:08:42.834Z,82.64
2022-08-25T01:09:37.906Z,82.68
2022-08-25T01:10:32.989Z,82.71
2022-08-25T01:11:28.063Z,82.73
2022-08-25T01:12:23.177Z,82.87
2022-08-25T01:13:18.301Z,82.92
2022-08-25T01:14:13.374Z,82.93
2022-08-25T01:15:10.221Z,82.89
2022-08-25T01:16:05.386Z,82.88
2022-08-25T01:17:00.314Z,82.98
2022-08-25T01:17:55.409Z,83.12
2022-08-25T01:18:50.492Z,83.28
2022-08-25T01:19:45.554Z,83.45
2022-08-25T01:20:40.729Z,83.38
2022-08-25T01:21:35.687Z,83.38
2022-08-25T01:22:30.677Z,83.40
2022-08-25T01:23:25.751Z,83.47
2022-08-25T01:24:20.810Z,83.51
2022-08-25T01:25:15.939Z,83.58
2022-08-25T01:26:11.029Z,83.63
2022-08-25T01:27:06.108Z,83.65
2022-08-25T01:28:01.238Z,83.71
2022-08-25T01:28:56.214Z,83.67
2022-08-25T01:29:51.327Z,83.40
2022-08-25T01:30:46.434Z,83.25
2022-08-25T01:31:41.518Z,83.32
2022-08-25T01:32:36.592Z,83.38
2022-08-25T01:33:31.661Z,83.54
2022-08-25T01:34:26.716Z,83.76
2022-08-25T01:35:21.789Z,83.76
2022-08-25T01:36:16.873Z,83.74
2022-08-25T01:37:12.073Z,83.69
2022-08-25T01:38:07.005Z,83.69
2022-08-25T01:39:02.115Z,83.72
2022-08-25T01:39:57.274Z,83.66
2022-08-25T01:40:52.242Z,83.62
2022-08-25T01:41:48.316Z,83.64
2022-08-25T01:42:43.381Z,83.44
2022-08-25T01:43:38.733Z,83.20
2022-08-25T01:44:33.873Z,83.26
2022-08-25T01:45:29.062Z,83.24
2022-08-25T01:46:24.264Z,83.31
2022-08-25T01:47:19.346Z,83.46
2022-08-25T01:48:14.609Z,83.61
2022-08-25T01:49:10.413Z,83.69
2022-08-25T01:50:05.612Z,83.72
2022-08-25T01:51:00.852Z,83.77
2022-08-25T01:51:56.526Z,83.89
2022-08-25T01:52:51.779Z,84.02
2022-08-25T01:53:47.637Z,84.13
2022-08-25T01:54:42.710Z,84.21
2022-08-25T01:55:38.095Z,84.31
2022-08-25T01:56:33.767Z,84.41
2022-08-25T01:57:29.028Z,84.50
2022-08-25T01:58:24.149Z,84.47
2022-08-25T01:59:24.333Z,84.58
2022-08-25T02:00:15.898Z,84.61
2022-08-25T02:01:11.758Z,84.57
2022-08-25T02:02:06.949Z,84.57
2022-08-25T02:03:02.164Z,84.47
2022-08-25T02:03:57.867Z,84.67
2022-08-25T02:04:53.080Z,84.72
2022-08-25T02:05:48.841Z,84.76
2022-08-25T02:06:43.975Z,84.64
2022-08-25T02:07:39.158Z,84.45
2022-08-25T02:08:35.281Z,84.33
2022-08-25T02:09:30.469Z,84.25
2022-08-25T02:10:25.715Z,84.27
2022-08-25T02:11:22.113Z,84.19
2022-08-25T02:12:17.429Z,84.15
2022-08-25T02:13:13.170Z,84.07
2022-08-25T02:14:08.372Z,83.89
2022-08-25T02:15:03.528Z,83.85
2022-08-25T02:15:59.384Z,83.87
2022-08-25T02:16:54.731Z,83.94
2022-08-25T02:17:50.673Z,83.96
2022-08-25T02:18:45.775Z,83.93
2022-08-25T02:19:41.176Z,83.83
2022-08-25T02:20:37.037Z,83.90
2022-08-25T02:21:32.282Z,84.01
2022-08-25T02:22:27.675Z,84.11
2022-08-25T02:23:23.779Z,84.17
2022-08-25T02:24:19.059Z,84.35
2022-08-25T02:25:14.888Z,84.49
2022-08-25T02:26:10.102Z,84.36
2022-08-25T02:27:05.343Z,84.25
2022-08-25T02:28:01.096Z,84.23
2022-08-25T02:28:56.181Z,84.19
2022-08-25T02:29:51.998Z,84.18
2022-08-25T02:30:47.211Z,84.11
2022-08-25T02:31:42.577Z,84.07
2022-08-25T02:32:38.260Z,84.00
2022-08-25T02:33:33.488Z,83.90
2022-08-25T02:34:28.579Z,83.88
2022-08-25T02:35:25.036Z,83.72
2022-08-25T02:36:20.338Z,83.59
2022-08-25T02:37:16.114Z,83.68
2022-08-25T02:38:11.323Z,83.74
2022-08-25T02:39:06.452Z,83.86
2022-08-25T02:40:02.348Z,84.03
2022-08-25T02:40:57.618Z,83.98
2022-08-25T02:41:53.268Z,83.94
2022-08-25T02:42:48.477Z,83.96
2022-08-25T02:43:43.760Z,84.09
2022-08-25T02:44:39.535Z,84.32
2022-08-25T02:45:34.745Z,84.39
2022-08-25T02:46:29.810Z,84.62
2022-08-25T02:47:26.884Z,84.60
2022-08-25T02:48:21.355Z,84.67
2022-08-25T02:49:16.559Z,84.70
2022-08-25T02:50:11.669Z,84.80
2022-08-25T02:51:08.301Z,84.84
2022-08-25T02:52:03.408Z,84.87
2022-08-25T02:52:58.515Z,84.91
2022-08-25T02:53:55.081Z,84.99
2022-08-25T02:54:50.356Z,84.99
2022-08-25T02:55:46.142Z,85.21
2022-08-25T02:56:41.345Z,85.13
2022-08-25T02:57:36.479Z,84.98
2022-08-25T02:58:32.267Z,84.90
2022-08-25T02:59:27.523Z,84.86
2022-08-25T03:00:23.331Z,84.88
2022-08-25T03:01:18.598Z,84.89
2022-08-25T03:02:13.794Z,84.94
2022-08-25T03:03:09.592Z,85.05
2022-08-25T03:04:04.720Z,85.15
2022-08-25T03:04:59.976Z,85.15
2022-08-25T03:05:56.311Z,85.33
2022-08-25T03:06:51.397Z,85.37
2022-08-25T03:07:46.589Z,85.37
2022-08-25T03:08:41.754Z,85.54
2022-08-25T03:09:36.969Z,85.67
2022-08-25T03:10:32.738Z,85.64
2022-08-25T03:11:27.984Z,85.41
2022-08-25T03:12:23.202Z,85.22
2022-08-25T03:13:19.039Z,85.14
2022-08-25T03:14:14.259Z,85.04
2022-08-25T03:15:13.259Z,85.10
2022-08-25T03:16:04.693Z,85.26
2022-08-25T03:17:00.559Z,85.14
2022-08-25T03:17:55.722Z,85.16
2022-08-25T03:18:51.995Z,85.14
2022-08-25T03:19:47.234Z,85.13
2022-08-25T03:20:42.395Z,85.12
2022-08-25T03:21:41.679Z,85.15
2022-08-25T03:22:36.915Z,85.13
2022-08-25T03:23:32.045Z,85.06
2022-08-25T03:24:27.251Z,85.04
2022-08-25T03:25:24.263Z,84.93
2022-08-25T03:26:17.445Z,84.88
2022-08-25T03:27:12.554Z,84.80
2022-08-25T03:28:13.610Z,84.80
2022-08-25T03:29:08.828Z,84.80
2022-08-25T03:30:03.914Z,84.77
2022-08-25T03:30:59.156Z,84.75
2022-08-25T03:31:54.727Z,84.82
2022-08-25T03:32:49.707Z,84.94
2022-08-25T03:33:44.954Z,84.96
2022-08-25T03:34:40.092Z,84.98
2022-08-25T03:35:35.289Z,85.12
2022-08-25T03:36:31.760Z,85.09
2022-08-25T03:37:26.895Z,85.24
2022-08-25T03:38:22.680Z,85.45
2022-08-25T03:39:17.920Z,85.56
2022-08-25T03:40:15.259Z,85.79
2022-08-25T03:41:08.886Z,85.86
2022-08-25T03:42:04.031Z,85.74
2022-08-25T03:42:59.820Z,85.74
2022-08-25T03:43:55.021Z,85.80
2022-08-25T03:44:50.289Z,85.83
2022-08-25T03:45:46.102Z,86.05
2022-08-25T03:46:41.207Z,86.05
2022-08-25T03:47:36.439Z,86.08
2022-08-25T03:48:32.797Z,86.12
2022-08-25T03:49:28.073Z,86.22
2022-08-25T03:50:23.826Z,86.12
2022-08-25T03:51:18.998Z,86.09
2022-08-25T03:52:14.167Z,86.22
2022-08-25T03:53:09.917Z,86.07
2022-08-25T03:54:05.204Z,85.94
2022-08-25T03:55:00.953Z,85.89
2022-08-25T03:55:56.306Z,85.86
2022-08-25T03:56:51.603Z,86.02
2022-08-25T03:57:47.227Z,86.05
2022-08-25T03:58:42.424Z,86.12
2022-08-25T03:59:37.623Z,86.12
2022-08-25T04:00:34.028Z,86.14
2022-08-25T04:01:29.328Z,86.08
2022-08-25T04:02:25.117Z,86.18
2022-08-25T04:03:20.299Z,86.37
2022-08-25T04:04:15.582Z,86.48
2022-08-25T04:05:11.363Z,86.43
2022-08-25T04:06:06.615Z,86.38
2022-08-25T04:07:02.388Z,86.29
2022-08-25T04:07:57.622Z,86.31
2022-08-25T04:08:52.951Z,86.47
2022-08-25T04:09:48.650Z,86.58
2022-08-25T04:10:43.930Z,86.70
2022-08-25T04:11:39.196Z,86.67
2022-08-25T04:12:35.713Z,86.71
2022-08-25T04:13:30.979Z,86.68
2022-08-25T04:14:26.839Z,86.74
2022-08-25T04:15:22.104Z,86.66
2022-08-25T04:16:17.419Z,86.62
2022-08-25T04:17:13.138Z,86.50
2022-08-25T04:18:08.434Z,86.40
2022-08-25T04:19:04.282Z,86.43
2022-08-25T04:19:59.418Z,86.36
2022-08-25T04:20:54.679Z,86.17
2022-08-25T04:21:49.901Z,86.03
2022-08-25T04:22:46.355Z,85.98
2022-08-25T04:23:41.637Z,85.91
2022-08-25T04:24:37.412Z,85.96
2022-08-25T04:25:32.723Z,86.07
2022-08-25T04:26:28.319Z,86.18
2022-08-25T04:27:23.945Z,86.19
2022-08-25T04:28:19.280Z,86.33
2022-08-25T04:29:15.080Z,86.50
2022-08-25T04:30:10.459Z,86.50
2022-08-25T04:31:05.966Z,86.66
2022-08-25T04:32:01.821Z,86.68
2022-08-25T04:32:57.119Z,86.67
2022-08-25T04:33:52.553Z,86.72
2022-08-25T04:34:48.761Z,86.70
2022-08-25T04:35:44.162Z,86.62
2022-08-25T04:36:39.537Z,86.43
2022-08-25T04:37:34.922Z,86.21
2022-08-25T04:38:32.087Z,85.99
2022-08-25T04:39:27.636Z,85.86
2022-08-25T04:40:27.958Z,85.77
2022-08-25T04:41:19.297Z,85.75
2022-08-25T04:42:13.722Z,85.93
2022-08-25T04:43:09.502Z,86.04
2022-08-25T04:44:04.884Z,86.04
2022-08-25T04:45:00.227Z,85.99
2022-08-25T04:45:55.805Z,85.99
2022-08-25T04:46:52.324Z,86.00
2022-08-25T04:47:51.707Z,85.95
2022-08-25T04:48:44.281Z,86.02
2022-08-25T04:49:38.613Z,86.17
2022-08-25T04:50:33.584Z,86.34
2022-08-25T04:51:28.707Z,86.16
2022-08-25T04:52:23.728Z,85.99
2022-08-25T04:53:18.705Z,85.96
2022-08-25T04:54:14.549Z,85.96
2022-08-25T04:55:12.888Z,86.08
2022-08-25T04:56:07.938Z,86.06
2022-08-25T04:57:03.009Z,86.05
2022-08-25T04:57:58.028Z,86.14
2022-08-25T04:58:53.192Z,86.08
2022-08-25T04:59:48.225Z,86.11
2022-08-25T05:00:43.304Z,86.07
2022-08-25T05:01:38.290Z,86.07
2022-08-25T05:02:33.328Z,86.17
2022-08-25T05:03:28.505Z,86.17
2022-08-25T05:04:28.194Z,86.17
2022-08-25T05:05:19.593Z,86.32
2022-08-25T05:06:16.069Z,86.07
2022-08-25T05:07:10.601Z,85.38
2022-08-25T05:08:05.855Z,84.99
2022-08-25T05:09:00.717Z,84.95
2022-08-25T05:09:55.784Z,85.03
2022-08-25T05:10:50.892Z,85.08
2022-08-25T05:11:46.159Z,85.02
2022-08-25T05:12:41.599Z,84.97
2022-08-25T05:13:36.917Z,84.94
2022-08-25T05:14:32.753Z,84.98
2022-08-25T05:15:28.135Z,84.97
2022-08-25T05:16:23.475Z,85.07
2022-08-25T05:17:18.821Z,85.11
2022-08-25T05:18:14.229Z,85.05
2022-08-25T05:19:09.674Z,84.98
2022-08-25T05:20:05.056Z,84.98
2022-08-25T05:21:00.550Z,85.02
2022-08-25T05:21:57.975Z,85.16
2022-08-25T05:22:51.260Z,85.21
2022-08-25T05:23:46.388Z,85.22
2022-08-25T05:24:41.509Z,85.18
2022-08-25T05:25:36.590Z,85.29
2022-08-25T05:26:31.617Z,85.33
2022-08-25T05:27:26.722Z,85.30
2022-08-25T05:28:21.915Z,85.24
2022-08-25T05:29:16.908Z,85.09
2022-08-25T05:30:14.208Z,84.93
2022-08-25T05:31:09.266Z,84.77
2022-08-25T05:32:04.369Z,84.67
2022-08-25T05:32:59.293Z,84.47
2022-08-25T05:33:54.316Z,84.36
2022-08-25T05:34:49.303Z,84.21
2022-08-25T05:35:44.297Z,84.13
2022-08-25T05:36:39.326Z,84.29
2022-08-25T05:37:34.355Z,83.97
2022-08-25T05:38:29.373Z,83.88
2022-08-25T05:39:26.986Z,83.79
2022-08-25T05:40:19.512Z,83.61
2022-08-25T05:41:14.530Z,83.62
2022-08-25T05:42:09.557Z,83.58
2022-08-25T05:43:04.624Z,83.56
2022-08-25T05:43:59.639Z,83.61
2022-08-25T05:44:54.847Z,83.64
2022-08-25T05:45:54.151Z,83.58
2022-08-25T05:46:49.574Z,83.19
2022-08-25T05:47:44.953Z,83.18
2022-08-25T05:48:40.415Z,83.24
2022-08-25T05:49:35.855Z,83.25
2022-08-25T05:50:31.431Z,83.11
2022-08-25T05:51:26.841Z,83.36
2022-08-25T05:52:22.220Z,83.29
2022-08-25T05:53:17.662Z,83.25
2022-08-25T05:54:13.105Z,83.20
2022-08-25T05:55:08.531Z,83.31
2022-08-25T05:56:04.041Z,83.28
2022-08-25T05:56:59.473Z,82.77
2022-08-25T05:57:55.467Z,83.10
2022-08-25T05:58:50.859Z,83.28
2022-08-25T05:59:45.849Z,83.18
2022-08-25T06:00:40.907Z,83.08
2022-08-25T06:01:35.977Z,82.91
2022-08-25T06:02:31.042Z,83.14
2022-08-25T06:03:26.253Z,83.21
2022-08-25T06:04:21.296Z,82.93
2022-08-25T06:05:16.303Z,82.79
2022-08-25T06:06:11.485Z,82.79
2022-08-25T06:07:06.441Z,82.51
2022-08-25T06:08:01.506Z,82.21
2022-08-25T06:08:57.369Z,82.05
2022-08-25T06:09:52.417Z,81.70
2022-08-25T06:10:47.456Z,81.49
2022-08-25T06:11:42.508Z,81.13
2022-08-25T06:12:38.765Z,81.00
2022-08-25T06:13:34.321Z,80.73
2022-08-25T06:14:29.675Z,80.50
2022-08-25T06:15:25.085Z,80.00
2022-08-25T06:16:20.590Z,80.04
2022-08-25T06:17:16.015Z,79.96
2022-08-25T06:18:11.468Z,79.64
2022-08-25T06:19:06.853Z,79.49
2022-08-25T06:20:02.327Z,79.43
2022-08-25T06:20:57.757Z,79.37
2022-08-25T06:21:53.213Z,79.31
2022-08-25T06:22:48.646Z,79.12
2022-08-25T06:23:44.092Z,78.77
2022-08-25T06:24:39.999Z,78.58
2022-08-25T06:25:35.413Z,78.18
2022-08-25T06:26:30.857Z,77.86
2022-08-25T06:27:26.280Z,77.47
2022-08-25T06:28:21.731Z,77.24
2022-08-25T06:29:17.310Z,76.94
2022-08-25T06:30:12.779Z,76.84
2022-08-25T06:31:07.891Z,76.72
2022-08-25T06:32:02.929Z,76.42
2022-08-25T06:32:57.978Z,76.04
2022-08-25T06:33:53.128Z,75.61
2022-08-25T06:34:48.199Z,75.14
2022-08-25T06:35:43.212Z,74.86
2022-08-25T06:36:38.250Z,74.68
2022-08-25T06:37:33.307Z,74.56
2022-08-25T06:38:28.329Z,74.13
2022-08-25T06:39:23.453Z,74.13
2022-08-25T06:40:18.623Z,73.81
2022-08-25T06:41:13.646Z,74.16
2022-08-25T06:42:08.744Z,74.77
2022-08-25T06:43:03.800Z,74.97
2022-08-25T06:44:04.722Z,74.61
2022-08-25T06:44:55.741Z,74.47
2022-08-25T06:45:50.222Z,74.41
2022-08-25T06:46:45.704Z,74.28
2022-08-25T06:47:41.968Z,74.51
2022-08-25T06:48:36.297Z,74.49
2022-08-25T06:49:35.575Z,74.53
2022-08-25T06:50:26.997Z,74.56
2022-08-25T06:51:21.486Z,75.01
2022-08-25T06:52:16.500Z,75.49
2022-08-25T06:53:11.515Z,75.65
2022-08-25T06:54:06.691Z,75.69
2022-08-25T06:55:01.716Z,75.72
2022-08-25T06:55:56.735Z,75.78
2022-08-25T06:56:51.766Z,75.57
2022-08-25T06:57:46.813Z,75.48
2022-08-25T06:58:41.847Z,75.41
2022-08-25T06:59:36.863Z,75.37
2022-08-25T07:00:32.102Z,75.41
2022-08-25T07:01:27.772Z,75.33
2022-08-25T07:02:23.212Z,75.56
2022-08-25T07:03:18.642Z,75.71
2022-08-25T07:04:14.101Z,75.44
2022-08-25T07:05:13.184Z,75.24
2022-08-25T07:06:04.935Z,74.81
2022-08-25T07:07:00.384Z,74.53
2022-08-25T07:07:55.793Z,74.37
2022-08-25T07:08:51.415Z,73.59
2022-08-25T07:09:46.892Z,72.91
2022-08-25T07:10:42.383Z,72.49
2022-08-25T07:11:38.830Z,71.86
2022-08-25T07:12:33.309Z,71.95
2022-08-25T07:13:28.802Z,72.04
2022-08-25T07:14:24.302Z,72.51
2022-08-25T07:15:20.717Z,72.72
2022-08-25T07:16:14.600Z,73.01
2022-08-25T07:17:12.458Z,73.32
2022-08-25T07:18:04.827Z,73.52
2022-08-25T07:19:00.133Z,73.93
2022-08-25T07:19:57.650Z,73.33
2022-08-25T07:20:49.868Z,72.34
2022-08-25T07:21:44.902Z,71.74
2022-08-25T07:22:39.987Z,70.84
2022-08-25T07:23:34.987Z,70.24
2022-08-25T07:24:31.139Z,69.59
2022-08-25T07:25:26.607Z,69.03
2022-08-25T07:26:36.761Z,68.55
2022-08-25T07:27:18.400Z,67.92
2022-08-25T07:28:12.767Z,67.43
2022-08-25T07:29:07.816Z,66.77
2022-08-25T07:30:02.878Z,66.82
2022-08-25T07:30:58.153Z,67.23
2022-08-25T07:31:53.071Z,66.95
2022-08-25T07:32:48.144Z,66.88
2022-08-25T07:33:44.204Z,66.90
2022-08-25T07:34:39.036Z,66.64
2022-08-25T07:35:37.466Z,65.61
2022-08-25T07:36:28.514Z,65.08
2022-08-25T07:37:48.526Z,64.80
2022-08-25T07:38:20.806Z,65.32
2022-08-25T07:39:14.322Z,66.00
2022-08-25T07:40:09.859Z,66.46
2022-08-25T07:41:05.222Z,66.92
2022-08-25T07:42:00.734Z,67.59
2022-08-25T07:42:56.235Z,68.26
2022-08-25T07:43:51.717Z,67.97
2022-08-25T07:44:47.214Z,67.37
2022-08-25T07:45:49.492Z,66.92
2022-08-25T07:46:39.172Z,66.54
2022-08-25T07:47:33.532Z,66.57
2022-08-25T07:48:29.043Z,66.67
2022-08-25T07:49:24.579Z,66.33
2022-08-25T07:50:20.037Z,65.71
2022-08-25T07:51:15.539Z,65.47
2022-08-25T07:52:10.950Z,64.68
2022-08-25T07:53:06.647Z,64.26
2022-08-25T07:54:01.479Z,65.03
2022-08-25T07:54:56.524Z,64.81
2022-08-25T07:55:51.727Z,64.69
2022-08-25T07:56:46.717Z,64.37
2022-08-25T07:57:41.796Z,64.55
2022-08-25T07:58:36.837Z,64.58
2022-08-25T07:59:39.002Z,64.93
2022-08-25T08:00:28.108Z,65.52
2022-08-25T08:01:22.097Z,65.90
2022-08-25T08:02:19.071Z,65.93
2022-08-25T08:03:35.216Z,65.94
2022-08-25T08:04:11.613Z,65.50
2022-08-25T08:05:06.012Z,65.35
2022-08-25T08:06:01.560Z,65.30
2022-08-25T08:06:56.982Z,64.33
2022-08-25T08:07:52.333Z,63.83
2022-08-25T08:08:47.937Z,63.27
2022-08-25T08:09:43.444Z,63.17
2022-08-25T08:10:54.123Z,63.92
2022-08-25T08:11:35.133Z,64.46
2022-08-25T08:12:29.691Z,63.83
2022-08-25T08:13:25.128Z,63.80
2022-08-25T08:14:20.661Z,63.99
2022-08-25T08:15:16.170Z,63.68
2022-08-25T08:16:11.619Z,62.72
2022-08-25T08:17:06.680Z,62.97
2022-08-25T08:18:01.727Z,62.72
2022-08-25T08:18:56.756Z,62.05
2022-08-25T08:19:52.007Z,61.95
2022-08-25T08:20:47.056Z,61.90
2022-08-25T08:21:42.043Z,62.01
2022-08-25T08:22:37.267Z,62.74
2022-08-25T08:23:32.373Z,63.41
2022-08-25T08:24:44.452Z,63.92
2022-08-25T08:25:27.342Z,63.87
2022-08-25T08:26:17.425Z,63.08
2022-08-25T08:27:12.441Z,62.73
2022-08-25T08:28:07.685Z,62.96
2022-08-25T08:29:02.638Z,63.63
2022-08-25T08:29:57.655Z,64.18
2022-08-25T08:30:53.312Z,63.34
2022-08-25T08:31:48.789Z,63.07
2022-08-25T08:33:06.224Z,62.73
2022-08-25T08:33:40.734Z,61.90
2022-08-25T08:34:34.251Z,62.40
2022-08-25T08:35:29.305Z,62.53
2022-08-25T08:36:25.477Z,62.38
2022-08-25T08:37:21.978Z,61.71
2022-08-25T08:38:19.587Z,61.49
2022-08-25T08:39:10.530Z,61.90
2022-08-25T08:40:04.615Z,62.40
2022-08-25T08:40:59.630Z,62.72
2022-08-25T08:42:10.878Z,62.25
2022-08-25T08:42:50.742Z,61.70
2022-08-25T08:43:44.859Z,61.78
2022-08-25T08:44:39.961Z,60.48
2022-08-25T08:45:40.580Z,59.22
2022-08-25T08:46:32.153Z,59.17
2022-08-25T08:47:26.468Z,59.79
2022-08-25T08:48:21.853Z,60.07
2022-08-25T08:49:16.929Z,60.72
2022-08-25T08:50:12.001Z,61.11
2022-08-25T08:51:09.761Z,61.72
2022-08-25T08:52:02.776Z,61.42
2022-08-25T08:52:57.116Z,60.71
2022-08-25T08:53:52.237Z,59.42
2022-08-25T08:54:47.266Z,59.08
2022-08-25T08:55:43.069Z,58.68
2022-08-25T08:56:38.187Z,58.84
2022-08-25T08:57:34.185Z,59.11
2022-08-25T08:58:28.285Z,59.23
2022-08-25T08:59:29.784Z,58.71
2022-08-25T09:00:20.787Z,58.38
2022-08-25T09:01:15.415Z,57.17
2022-08-25T09:02:13.757Z,56.21
2022-08-25T09:03:06.767Z,56.72
2022-08-25T09:04:01.987Z,57.08
2022-08-25T09:04:57.568Z,58.02
2022-08-25T09:05:53.058Z,58.30
2022-08-25T09:06:48.643Z,57.81
2022-08-25T09:07:44.175Z,57.42
2022-08-25T09:08:39.681Z,56.82
2022-08-25T09:09:36.240Z,57.17
2022-08-25T09:10:30.596Z,57.66
2022-08-25T09:11:26.559Z,57.44
2022-08-25T09:12:21.035Z,57.77
2022-08-25T09:13:16.023Z,57.46
2022-08-25T09:14:11.141Z,57.47
2022-08-25T09:15:12.573Z,56.89
2022-08-25T09:16:02.189Z,57.08
2022-08-25T09:16:56.237Z,57.50
2022-08-25T09:17:54.304Z,57.67
2022-08-25T09:18:51.594Z,58.30
2022-08-25T09:19:43.842Z,59.16
2022-08-25T09:20:38.958Z,60.13
2022-08-25T09:21:34.039Z,59.69
2022-08-25T09:22:35.182Z,59.92
2022-08-25T09:23:25.184Z,60.14
2022-08-25T09:24:19.323Z,60.78
2022-08-25T09:25:22.059Z,60.78
2022-08-25T09:26:12.291Z,61.51
2022-08-25T09:27:06.873Z,61.23
2022-08-25T09:28:02.397Z,59.67
2022-08-25T09:28:57.951Z,58.29
2022-08-25T09:29:53.474Z,58.49
2022-08-25T09:30:49.054Z,57.99
2022-08-25T09:31:44.500Z,57.30
2022-08-25T09:32:39.510Z,56.85
2022-08-25T09:33:35.658Z,55.64
2022-08-25T09:34:29.669Z,54.43
2022-08-25T09:35:24.765Z,53.55
2022-08-25T09:36:19.934Z,53.06
2022-08-25T09:37:14.869Z,52.51
2022-08-25T09:38:10.014Z,53.66
2022-08-25T09:39:05.002Z,53.86
2022-08-25T09:40:00.214Z,54.56
2022-08-25T09:40:55.241Z,55.40
2022-08-25T09:41:51.216Z,56.09
2022-08-25T09:42:46.456Z,56.73
2022-08-25T09:43:42.018Z,56.38
2022-08-25T09:44:37.569Z,56.39
2022-08-25T09:45:32.938Z,56.87
2022-08-25T09:46:28.484Z,57.30
2022-08-25T09:47:23.950Z,58.01
2022-08-25T09:48:19.578Z,58.91
2022-08-25T09:49:14.898Z,59.07
2022-08-25T09:50:10.277Z,58.54
2022-08-25T09:51:07.992Z,58.41
2022-08-25T09:52:02.577Z,57.47
2022-08-25T09:52:58.220Z,56.49
2022-08-25T09:53:53.539Z,55.48
2022-08-25T09:54:48.947Z,55.26
2022-08-25T09:55:44.613Z,55.65
2022-08-25T09:56:40.137Z,55.13
2022-08-25T09:57:35.700Z,54.53
2022-08-25T09:58:31.220Z,53.60
2022-08-25T09:59:34.236Z,53.24
2022-08-25T10:00:23.253Z,53.45
2022-08-25T10:01:17.820Z,53.86
2022-08-25T10:02:15.872Z,54.49
2022-08-25T10:03:08.769Z,53.76
2022-08-25T10:04:07.331Z,53.91
2022-08-25T10:05:03.880Z,54.31
2022-08-25T10:05:58.226Z,53.64
2022-08-25T10:06:53.925Z,52.97
2022-08-25T10:07:51.943Z,52.67
2022-08-25T10:08:45.229Z,54.18
2022-08-25T10:09:40.778Z,55.21
2022-08-25T10:10:36.185Z,55.96
2022-08-25T10:11:31.696Z,55.98
2022-08-25T10:12:27.773Z,55.58
2022-08-25T10:13:23.073Z,54.75
2022-08-25T10:14:17.484Z,54.24
2022-08-25T10:15:12.493Z,53.88
2022-08-25T10:16:17.682Z,53.76
2022-08-25T10:17:03.644Z,53.88
2022-08-25T10:17:57.721Z,53.96
2022-08-25T10:18:52.715Z,53.99
2022-08-25T10:19:47.781Z,53.07
2022-08-25T10:20:44.848Z,53.43
2022-08-25T10:21:37.987Z,53.49
2022-08-25T10:22:33.097Z,53.35
2022-08-25T10:23:28.214Z,52.84
2022-08-25T10:24:23.222Z,53.08
2022-08-25T10:25:18.314Z,53.38
2022-08-25T10:26:13.360Z,52.69
2022-08-25T10:27:09.069Z,52.72
2022-08-25T10:28:04.382Z,52.41
2022-08-25T10:28:59.240Z,53.01
2022-08-25T10:29:54.324Z,53.43
2022-08-25T10:30:49.453Z,53.29
2022-08-25T10:31:44.404Z,53.90
2022-08-25T10:32:39.419Z,54.34
2022-08-25T10:33:34.443Z,54.44
2022-08-25T10:34:29.459Z,54.33
2022-08-25T10:35:24.452Z,54.45
2022-08-25T10:36:20.444Z,54.37
2022-08-25T10:37:15.362Z,53.63
2022-08-25T10:38:10.995Z,52.59
2022-08-25T10:39:05.874Z,52.55
2022-08-25T10:40:02.013Z,51.50
2022-08-25T10:40:56.011Z,51.00
2022-08-25T10:41:53.337Z,50.35
2022-08-25T10:42:46.175Z,50.15
2022-08-25T10:43:41.221Z,50.55
2022-08-25T10:44:36.665Z,49.99
2022-08-25T10:45:31.962Z,49.85
2022-08-25T10:46:27.478Z,50.83
2022-08-25T10:47:22.932Z,50.54
2022-08-25T10:48:18.333Z,50.03
2022-08-25T10:49:13.708Z,49.74
2022-08-25T10:50:08.814Z,50.08
2022-08-25T10:51:03.818Z,49.24
2022-08-25T10:51:58.986Z,49.10
2022-08-25T10:52:54.120Z,48.25
2022-08-25T10:53:49.199Z,48.74
2022-08-25T10:54:44.241Z,49.97
2022-08-25T10:55:40.418Z,49.71
2022-08-25T10:56:40.929Z,49.24
2022-08-25T10:57:32.086Z,49.57
2022-08-25T10:58:30.814Z,50.31
2022-08-25T10:59:22.294Z,49.73
2022-08-25T11:00:18.188Z,49.84
2022-08-25T11:01:13.649Z,49.44
2022-08-25T11:02:09.236Z,48.17
2022-08-25T11:03:05.037Z,49.08
2022-08-25T11:04:00.303Z,50.08
2022-08-25T11:04:55.793Z,50.92
2022-08-25T11:05:51.392Z,51.12
2022-08-25T11:06:50.255Z,51.70
2022-08-25T11:07:43.359Z,51.13
2022-08-25T11:08:37.834Z,50.94
2022-08-25T11:09:33.467Z,50.21
2022-08-25T11:10:29.069Z,50.14
2022-08-25T11:11:24.564Z,50.44
2022-08-25T11:12:19.971Z,50.68
2022-08-25T11:13:15.063Z,50.63
2022-08-25T11:14:11.235Z,50.47
2022-08-25T11:15:05.116Z,50.08
2022-08-25T11:16:16.548Z,49.24
2022-08-25T11:16:56.319Z,48.91
2022-08-25T11:17:50.477Z,48.57
2022-08-25T11:18:45.228Z,48.21
2022-08-25T11:19:42.957Z,48.37
2022-08-25T11:20:38.055Z,49.47
2022-08-25T11:21:34.913Z,49.73
2022-08-25T11:22:28.087Z,49.35
2022-08-25T11:23:23.860Z,48.67
2022-08-25T11:24:18.231Z,48.19
2022-08-25T11:25:13.620Z,48.18
2022-08-25T11:26:09.168Z,48.17
2022-08-25T11:27:04.671Z,47.65
2022-08-25T11:28:00.192Z,47.58
2022-08-25T11:28:55.575Z,47.74
2022-08-25T11:29:51.095Z,48.04
2022-08-25T11:30:46.643Z,47.65
2022-08-25T11:31:42.166Z,47.72
2022-08-25T11:32:37.700Z,47.34
2022-08-25T11:33:33.166Z,46.99
2022-08-25T11:34:28.718Z,47.37
2022-08-25T11:35:24.139Z,47.62
2022-08-25T11:36:19.224Z,47.58
2022-08-25T11:37:14.316Z,47.08
2022-08-25T11:38:09.471Z,47.00
2022-08-25T11:39:04.414Z,47.63
2022-08-25T11:39:59.511Z,47.79
2022-08-25T11:40:54.506Z,47.72
2022-08-25T11:41:49.598Z,47.03
2022-08-25T11:42:45.508Z,46.84
2022-08-25T11:43:40.523Z,46.69
2022-08-25T11:44:35.401Z,47.31
2022-08-25T11:45:30.488Z,48.23
2022-08-25T11:46:27.821Z,48.71
2022-08-25T11:47:22.143Z,49.74
2022-08-25T11:48:17.594Z,49.60
2022-08-25T11:49:12.940Z,50.26
2022-08-25T11:50:08.608Z,49.87
2022-08-25T11:51:04.907Z,49.61
2022-08-25T11:52:02.780Z,49.04
2022-08-25T11:52:54.871Z,48.49